sensor_id;sensor_type;location;lat;lon;timestamp;temperature;humidity
17489;DHT22;8861;52.644;4.734;2023-07-28T00:02:07;18.30;99.90
17489;DHT22;8861;52.644;4.734;2023-07-28T00:04:34;18.30;99.90
17489;DHT22;8861;52.644;4.734;2023-07-28T00:07:01;18.30;99.90
17489;DHT22;8861;52.644;4.734;2023-07-28T00:09:28;18.30;99.90
17489;DHT22;8861;52.644;4.734;2023-07-28T00:11:56;18.30;99.90
17489;DHT22;8861;52.644;4.734;2023-07-28T00:14:23;18.30;99.90
17489;DHT22;8861;52.644;4.734;2023-07-28T00:16:50;18.30;99.90
17489;DHT22;8861;52.644;4.734;2023-07-28T00:19:19;18.30;99.90
17489;DHT22;8861;52.644;4.734;2023-07-28T00:21:47;18.30;99.90
17489;DHT22;8861;52.644;4.734;2023-07-28T00:24:14;18.30;99.90
17489;DHT22;8861;52.644;4.734;2023-07-28T00:26:41;18.40;99.90
17489;DHT22;8861;52.644;4.734;2023-07-28T00:29:08;18.40;99.90
17489;DHT22;8861;52.644;4.734;2023-07-28T00:31:35;18.40;99.90
17489;DHT22;8861;52.644;4.734;2023-07-28T00:34:03;18.40;99.90
17489;DHT22;8861;52.644;4.734;2023-07-28T00:36:32;18.40;99.90
17489;DHT22;8861;52.644;4.734;2023-07-28T00:38:59;18.30;99.90
17489;DHT22;8861;52.644;4.734;2023-07-28T00:41:26;18.40;99.90
17489;DHT22;8861;52.644;4.734;2023-07-28T00:43:53;18.30;99.90
17489;DHT22;8861;52.644;4.734;2023-07-28T00:46:20;18.40;99.90
17489;DHT22;8861;52.644;4.734;2023-07-28T00:48:47;18.30;99.90
17489;DHT22;8861;52.644;4.734;2023-07-28T00:51:14;18.40;99.90
17489;DHT22;8861;52.644;4.734;2023-07-28T00:53:43;18.40;99.90
17489;DHT22;8861;52.644;4.734;2023-07-28T00:56:10;18.30;99.90
17489;DHT22;8861;52.644;4.734;2023-07-28T00:58:38;18.40;99.90
17489;DHT22;8861;52.644;4.734;2023-07-28T01:01:05;18.30;99.90
17489;DHT22;8861;52.644;4.734;2023-07-28T01:03:32;18.40;99.90
17489;DHT22;8861;52.644;4.734;2023-07-28T01:06:10;18.30;99.90
17489;DHT22;8861;52.644;4.734;2023-07-28T01:08:47;18.30;99.90
17489;DHT22;8861;52.644;4.734;2023-07-28T01:11:16;18.30;99.90
17489;DHT22;8861;52.644;4.734;2023-07-28T01:13:43;18.30;99.90
17489;DHT22;8861;52.644;4.734;2023-07-28T01:16:10;18.30;99.90
17489;DHT22;8861;52.644;4.734;2023-07-28T01:18:37;18.30;99.90
17489;DHT22;8861;52.644;4.734;2023-07-28T01:21:08;18.30;99.90
17489;DHT22;8861;52.644;4.734;2023-07-28T01:23:44;18.30;99.90
17489;DHT22;8861;52.644;4.734;2023-07-28T01:26:15;18.30;99.90
17489;DHT22;8861;52.644;4.734;2023-07-28T01:28:45;18.30;99.90
17489;DHT22;8861;52.644;4.734;2023-07-28T01:31:12;18.30;99.90
17489;DHT22;8861;52.644;4.734;2023-07-28T01:33:39;18.30;99.90
17489;DHT22;8861;52.644;4.734;2023-07-28T01:36:06;18.20;99.90
17489;DHT22;8861;52.644;4.734;2023-07-28T01:38:33;18.20;99.90
17489;DHT22;8861;52.644;4.734;2023-07-28T01:41:00;18.20;99.90
17489;DHT22;8861;52.644;4.734;2023-07-28T01:43:26;18.20;99.90
17489;DHT22;8861;52.644;4.734;2023-07-28T01:45:55;18.20;99.90
17489;DHT22;8861;52.644;4.734;2023-07-28T01:48:22;18.20;99.90
17489;DHT22;8861;52.644;4.734;2023-07-28T01:50:49;18.20;99.90
17489;DHT22;8861;52.644;4.734;2023-07-28T01:53:16;18.20;99.90
17489;DHT22;8861;52.644;4.734;2023-07-28T01:55:43;18.20;99.90
17489;DHT22;8861;52.644;4.734;2023-07-28T01:58:10;18.20;99.90
17489;DHT22;8861;52.644;4.734;2023-07-28T02:00:37;18.20;99.90
17489;DHT22;8861;52.644;4.734;2023-07-28T02:03:05;18.20;99.90
17489;DHT22;8861;52.644;4.734;2023-07-28T02:05:32;18.20;99.90
17489;DHT22;8861;52.644;4.734;2023-07-28T02:08:00;18.30;99.90
17489;DHT22;8861;52.644;4.734;2023-07-28T02:10:27;18.30;99.90
17489;DHT22;8861;52.644;4.734;2023-07-28T02:12:55;18.30;99.90
17489;DHT22;8861;52.644;4.734;2023-07-28T02:15:22;18.30;99.90
17489;DHT22;8861;52.644;4.734;2023-07-28T02:17:49;18.30;99.90
17489;DHT22;8861;52.644;4.734;2023-07-28T02:20:18;18.30;99.90
17489;DHT22;8861;52.644;4.734;2023-07-28T02:22:44;18.30;99.90
17489;DHT22;8861;52.644;4.734;2023-07-28T02:25:11;18.30;99.90
17489;DHT22;8861;52.644;4.734;2023-07-28T02:27:38;18.30;99.90
17489;DHT22;8861;52.644;4.734;2023-07-28T02:30:06;18.20;99.90
17489;DHT22;8861;52.644;4.734;2023-07-28T02:32:34;18.20;99.90
17489;DHT22;8861;52.644;4.734;2023-07-28T02:35:01;18.20;99.90
17489;DHT22;8861;52.644;4.734;2023-07-28T02:37:29;18.10;99.90
17489;DHT22;8861;52.644;4.734;2023-07-28T02:39:56;18.20;99.90
17489;DHT22;8861;52.644;4.734;2023-07-28T02:42:23;18.10;99.90
17489;DHT22;8861;52.644;4.734;2023-07-28T02:44:51;18.10;99.90
17489;DHT22;8861;52.644;4.734;2023-07-28T02:47:17;18.00;99.90
17489;DHT22;8861;52.644;4.734;2023-07-28T02:49:44;18.00;99.90
17489;DHT22;8861;52.644;4.734;2023-07-28T02:52:12;18.00;99.90
17489;DHT22;8861;52.644;4.734;2023-07-28T02:54:40;17.90;99.90
17489;DHT22;8861;52.644;4.734;2023-07-28T02:57:07;18.00;99.90
17489;DHT22;8861;52.644;4.734;2023-07-28T02:59:34;18.00;99.90
17489;DHT22;8861;52.644;4.734;2023-07-28T03:02:01;17.90;99.90
17489;DHT22;8861;52.644;4.734;2023-07-28T03:04:28;17.90;99.90
17489;DHT22;8861;52.644;4.734;2023-07-28T03:06:55;17.90;99.90
17489;DHT22;8861;52.644;4.734;2023-07-28T03:09:22;17.80;99.90
17489;DHT22;8861;52.644;4.734;2023-07-28T03:11:51;17.80;99.90
17489;DHT22;8861;52.644;4.734;2023-07-28T03:14:18;17.80;99.90
17489;DHT22;8861;52.644;4.734;2023-07-28T03:16:45;17.80;99.90
17489;DHT22;8861;52.644;4.734;2023-07-28T03:19:14;17.80;99.90
17489;DHT22;8861;52.644;4.734;2023-07-28T03:21:43;17.80;99.90
17489;DHT22;8861;52.644;4.734;2023-07-28T03:24:10;17.80;99.90
17489;DHT22;8861;52.644;4.734;2023-07-28T03:26:37;17.80;99.90
17489;DHT22;8861;52.644;4.734;2023-07-28T03:29:05;17.80;99.90
17489;DHT22;8861;52.644;4.734;2023-07-28T03:31:32;17.80;99.90
17489;DHT22;8861;52.644;4.734;2023-07-28T03:34:01;17.80;99.90
17489;DHT22;8861;52.644;4.734;2023-07-28T03:36:28;17.80;99.90
17489;DHT22;8861;52.644;4.734;2023-07-28T03:38:55;17.80;99.90
17489;DHT22;8861;52.644;4.734;2023-07-28T03:41:22;17.90;99.90
17489;DHT22;8861;52.644;4.734;2023-07-28T03:43:49;17.90;99.90
17489;DHT22;8861;52.644;4.734;2023-07-28T03:46:18;17.90;99.90
17489;DHT22;8861;52.644;4.734;2023-07-28T03:48:45;17.90;99.90
17489;DHT22;8861;52.644;4.734;2023-07-28T03:51:12;18.00;99.90
17489;DHT22;8861;52.644;4.734;2023-07-28T03:53:39;17.90;99.90
17489;DHT22;8861;52.644;4.734;2023-07-28T03:56:06;17.90;99.90
17489;DHT22;8861;52.644;4.734;2023-07-28T03:58:33;17.90;99.90
17489;DHT22;8861;52.644;4.734;2023-07-28T04:01:00;17.80;99.90
17489;DHT22;8861;52.644;4.734;2023-07-28T04:03:28;17.80;99.90
17489;DHT22;8861;52.644;4.734;2023-07-28T04:05:55;17.80;99.90
17489;DHT22;8861;52.644;4.734;2023-07-28T04:08:22;17.70;99.90
17489;DHT22;8861;52.644;4.734;2023-07-28T04:10:49;17.80;99.90
17489;DHT22;8861;52.644;4.734;2023-07-28T04:13:16;17.70;99.90
17489;DHT22;8861;52.644;4.734;2023-07-28T04:15:43;17.70;99.90
17489;DHT22;8861;52.644;4.734;2023-07-28T04:18:10;17.70;99.90
17489;DHT22;8861;52.644;4.734;2023-07-28T04:20:38;17.80;99.90
17489;DHT22;8861;52.644;4.734;2023-07-28T04:23:05;17.80;99.90
17489;DHT22;8861;52.644;4.734;2023-07-28T04:25:32;17.80;99.90
17489;DHT22;8861;52.644;4.734;2023-07-28T04:27:59;17.80;99.90
17489;DHT22;8861;52.644;4.734;2023-07-28T04:30:26;17.80;99.90
17489;DHT22;8861;52.644;4.734;2023-07-28T04:32:53;17.90;99.90
17489;DHT22;8861;52.644;4.734;2023-07-28T04:35:20;17.90;99.90
17489;DHT22;8861;52.644;4.734;2023-07-28T04:37:49;17.90;99.90
17489;DHT22;8861;52.644;4.734;2023-07-28T04:40:16;18.00;99.90
17489;DHT22;8861;52.644;4.734;2023-07-28T04:42:43;18.00;99.90
17489;DHT22;8861;52.644;4.734;2023-07-28T04:45:10;18.00;99.90
17489;DHT22;8861;52.644;4.734;2023-07-28T04:47:37;18.00;99.90
17489;DHT22;8861;52.644;4.734;2023-07-28T04:50:05;17.90;99.90
17489;DHT22;8861;52.644;4.734;2023-07-28T04:52:32;17.90;99.90
17489;DHT22;8861;52.644;4.734;2023-07-28T04:55:00;17.90;99.90
17489;DHT22;8861;52.644;4.734;2023-07-28T04:57:27;17.90;99.90
17489;DHT22;8861;52.644;4.734;2023-07-28T04:59:54;17.90;99.90
17489;DHT22;8861;52.644;4.734;2023-07-28T05:02:21;18.00;99.90
17489;DHT22;8861;52.644;4.734;2023-07-28T05:04:48;17.90;99.90
17489;DHT22;8861;52.644;4.734;2023-07-28T05:07:15;18.00;99.90
17489;DHT22;8861;52.644;4.734;2023-07-28T05:09:42;18.00;99.90
17489;DHT22;8861;52.644;4.734;2023-07-28T05:12:11;18.10;99.90
17489;DHT22;8861;52.644;4.734;2023-07-28T05:14:39;18.20;99.90
17489;DHT22;8861;52.644;4.734;2023-07-28T05:17:07;18.20;99.90
17489;DHT22;8861;52.644;4.734;2023-07-28T05:19:34;18.30;99.90
17489;DHT22;8861;52.644;4.734;2023-07-28T05:22:04;18.30;99.90
17489;DHT22;8861;52.644;4.734;2023-07-28T05:24:32;18.30;99.90
17489;DHT22;8861;52.644;4.734;2023-07-28T05:26:59;18.30;99.90
17489;DHT22;8861;52.644;4.734;2023-07-28T05:29:27;18.40;99.90
17489;DHT22;8861;52.644;4.734;2023-07-28T05:31:54;18.40;99.90
17489;DHT22;8861;52.644;4.734;2023-07-28T05:34:21;18.50;99.90
17489;DHT22;8861;52.644;4.734;2023-07-28T05:36:49;18.60;99.90
17489;DHT22;8861;52.644;4.734;2023-07-28T05:39:16;18.60;99.90
17489;DHT22;8861;52.644;4.734;2023-07-28T05:41:43;18.50;99.90
17489;DHT22;8861;52.644;4.734;2023-07-28T05:44:10;18.60;99.90
17489;DHT22;8861;52.644;4.734;2023-07-28T05:46:38;18.60;99.90
17489;DHT22;8861;52.644;4.734;2023-07-28T05:49:05;18.60;99.90
17489;DHT22;8861;52.644;4.734;2023-07-28T05:51:32;18.60;99.90
17489;DHT22;8861;52.644;4.734;2023-07-28T05:54:00;18.70;99.90
17489;DHT22;8861;52.644;4.734;2023-07-28T05:56:27;18.80;99.90
17489;DHT22;8861;52.644;4.734;2023-07-28T05:58:55;18.90;99.90
17489;DHT22;8861;52.644;4.734;2023-07-28T06:01:22;19.00;99.90
17489;DHT22;8861;52.644;4.734;2023-07-28T06:03:52;19.00;99.90
17489;DHT22;8861;52.644;4.734;2023-07-28T06:06:24;19.10;99.90
17489;DHT22;8861;52.644;4.734;2023-07-28T06:08:52;19.10;99.90
17489;DHT22;8861;52.644;4.734;2023-07-28T06:11:19;19.20;99.90
17489;DHT22;8861;52.644;4.734;2023-07-28T06:13:47;19.30;99.90
17489;DHT22;8861;52.644;4.734;2023-07-28T06:16:14;19.30;99.90
17489;DHT22;8861;52.644;4.734;2023-07-28T06:18:41;19.30;99.90
17489;DHT22;8861;52.644;4.734;2023-07-28T06:21:10;19.40;99.90
17489;DHT22;8861;52.644;4.734;2023-07-28T06:23:37;19.50;99.90
17489;DHT22;8861;52.644;4.734;2023-07-28T06:26:04;19.60;99.90
17489;DHT22;8861;52.644;4.734;2023-07-28T06:28:31;19.70;99.90
17489;DHT22;8861;52.644;4.734;2023-07-28T06:30:58;19.70;99.90
17489;DHT22;8861;52.644;4.734;2023-07-28T06:33:27;19.70;99.90
17489;DHT22;8861;52.644;4.734;2023-07-28T06:35:54;19.70;99.90
17489;DHT22;8861;52.644;4.734;2023-07-28T06:38:24;19.70;99.90
17489;DHT22;8861;52.644;4.734;2023-07-28T06:40:51;19.60;99.90
17489;DHT22;8861;52.644;4.734;2023-07-28T06:43:18;19.50;99.90
17489;DHT22;8861;52.644;4.734;2023-07-28T06:45:45;19.50;99.90
17489;DHT22;8861;52.644;4.734;2023-07-28T06:48:12;19.60;99.90
17489;DHT22;8861;52.644;4.734;2023-07-28T06:50:40;19.60;99.90
17489;DHT22;8861;52.644;4.734;2023-07-28T06:53:06;19.60;99.90
17489;DHT22;8861;52.644;4.734;2023-07-28T06:55:35;19.60;99.90
17489;DHT22;8861;52.644;4.734;2023-07-28T06:58:04;19.60;99.90
17489;DHT22;8861;52.644;4.734;2023-07-28T07:00:31;19.60;99.90
17489;DHT22;8861;52.644;4.734;2023-07-28T07:02:59;19.70;99.90
17489;DHT22;8861;52.644;4.734;2023-07-28T07:05:26;19.80;99.90
17489;DHT22;8861;52.644;4.734;2023-07-28T07:07:53;20.00;99.90
17489;DHT22;8861;52.644;4.734;2023-07-28T07:10:21;20.20;99.90
17489;DHT22;8861;52.644;4.734;2023-07-28T07:12:49;20.30;99.90
17489;DHT22;8861;52.644;4.734;2023-07-28T07:15:16;20.30;99.90
17489;DHT22;8861;52.644;4.734;2023-07-28T07:17:43;20.30;99.90
17489;DHT22;8861;52.644;4.734;2023-07-28T07:20:11;20.40;99.90
17489;DHT22;8861;52.644;4.734;2023-07-28T07:22:38;20.70;99.90
17489;DHT22;8861;52.644;4.734;2023-07-28T07:25:05;20.90;99.90
17489;DHT22;8861;52.644;4.734;2023-07-28T07:27:32;20.90;99.90
17489;DHT22;8861;52.644;4.734;2023-07-28T07:30:01;21.00;99.90
17489;DHT22;8861;52.644;4.734;2023-07-28T07:32:28;20.90;99.90
17489;DHT22;8861;52.644;4.734;2023-07-28T07:34:55;20.90;99.90
17489;DHT22;8861;52.644;4.734;2023-07-28T07:37:23;21.00;99.90
17489;DHT22;8861;52.644;4.734;2023-07-28T07:39:50;21.10;99.90
17489;DHT22;8861;52.644;4.734;2023-07-28T07:42:17;21.10;99.90
17489;DHT22;8861;52.644;4.734;2023-07-28T07:44:44;21.10;99.90
17489;DHT22;8861;52.644;4.734;2023-07-28T07:47:13;21.10;99.90
17489;DHT22;8861;52.644;4.734;2023-07-28T07:49:41;21.10;99.90
17489;DHT22;8861;52.644;4.734;2023-07-28T07:52:08;21.10;99.90
17489;DHT22;8861;52.644;4.734;2023-07-28T07:54:35;21.10;99.90
17489;DHT22;8861;52.644;4.734;2023-07-28T07:57:03;21.00;99.90
17489;DHT22;8861;52.644;4.734;2023-07-28T07:59:30;20.90;99.90
17489;DHT22;8861;52.644;4.734;2023-07-28T08:01:59;20.80;99.90
17489;DHT22;8861;52.644;4.734;2023-07-28T08:04:29;20.80;99.90
17489;DHT22;8861;52.644;4.734;2023-07-28T08:06:57;20.80;99.90
17489;DHT22;8861;52.644;4.734;2023-07-28T08:09:24;20.80;99.90
17489;DHT22;8861;52.644;4.734;2023-07-28T08:11:51;20.80;99.90
17489;DHT22;8861;52.644;4.734;2023-07-28T08:14:18;20.90;99.90
17489;DHT22;8861;52.644;4.734;2023-07-28T08:16:45;21.00;99.90
17489;DHT22;8861;52.644;4.734;2023-07-28T08:19:12;21.20;99.90
17489;DHT22;8861;52.644;4.734;2023-07-28T08:21:41;21.50;99.90
17489;DHT22;8861;52.644;4.734;2023-07-28T08:24:08;21.60;99.90
17489;DHT22;8861;52.644;4.734;2023-07-28T08:26:35;21.60;99.90
17489;DHT22;8861;52.644;4.734;2023-07-28T08:29:02;21.50;99.90
17489;DHT22;8861;52.644;4.734;2023-07-28T08:31:29;21.50;99.90
17489;DHT22;8861;52.644;4.734;2023-07-28T08:33:56;21.60;99.90
17489;DHT22;8861;52.644;4.734;2023-07-28T08:36:23;21.60;99.90
17489;DHT22;8861;52.644;4.734;2023-07-28T08:38:51;21.60;99.90
17489;DHT22;8861;52.644;4.734;2023-07-28T08:41:19;21.50;99.90
17489;DHT22;8861;52.644;4.734;2023-07-28T08:43:46;21.50;99.90
17489;DHT22;8861;52.644;4.734;2023-07-28T08:46:13;21.50;99.90
17489;DHT22;8861;52.644;4.734;2023-07-28T08:48:40;21.50;99.90
17489;DHT22;8861;52.644;4.734;2023-07-28T08:51:07;21.60;99.90
17489;DHT22;8861;52.644;4.734;2023-07-28T08:53:34;21.60;99.90
17489;DHT22;8861;52.644;4.734;2023-07-28T08:56:02;21.70;99.90
17489;DHT22;8861;52.644;4.734;2023-07-28T08:58:30;21.70;99.90
17489;DHT22;8861;52.644;4.734;2023-07-28T09:00:57;21.80;99.90
17489;DHT22;8861;52.644;4.734;2023-07-28T09:03:27;22.10;99.90
17489;DHT22;8861;52.644;4.734;2023-07-28T09:05:59;22.40;99.90
17489;DHT22;8861;52.644;4.734;2023-07-28T09:08:26;22.70;99.90
17489;DHT22;8861;52.644;4.734;2023-07-28T09:10:53;22.90;99.90
17489;DHT22;8861;52.644;4.734;2023-07-28T09:13:22;23.10;99.90
17489;DHT22;8861;52.644;4.734;2023-07-28T09:15:49;23.20;99.90
17489;DHT22;8861;52.644;4.734;2023-07-28T09:18:17;23.10;99.90
17489;DHT22;8861;52.644;4.734;2023-07-28T09:20:44;22.90;99.90
17489;DHT22;8861;52.644;4.734;2023-07-28T09:23:13;22.60;99.90
17489;DHT22;8861;52.644;4.734;2023-07-28T09:25:41;22.30;99.90
17489;DHT22;8861;52.644;4.734;2023-07-28T09:28:09;22.00;99.90
17489;DHT22;8861;52.644;4.734;2023-07-28T09:30:48;21.90;99.90
17489;DHT22;8861;52.644;4.734;2023-07-28T09:33:29;22.00;99.90
17489;DHT22;8861;52.644;4.734;2023-07-28T09:35:57;22.30;99.90
17489;DHT22;8861;52.644;4.734;2023-07-28T09:38:27;22.50;99.90
17489;DHT22;8861;52.644;4.734;2023-07-28T09:40:56;22.60;99.90
17489;DHT22;8861;52.644;4.734;2023-07-28T09:43:24;22.60;99.90
17489;DHT22;8861;52.644;4.734;2023-07-28T09:45:52;22.60;99.90
17489;DHT22;8861;52.644;4.734;2023-07-28T09:48:21;22.50;99.90
17489;DHT22;8861;52.644;4.734;2023-07-28T09:50:48;22.50;99.90
17489;DHT22;8861;52.644;4.734;2023-07-28T09:53:15;22.50;99.90
17489;DHT22;8861;52.644;4.734;2023-07-28T09:55:43;22.50;99.90
17489;DHT22;8861;52.644;4.734;2023-07-28T09:58:12;22.40;99.90
17489;DHT22;8861;52.644;4.734;2023-07-28T10:00:43;22.40;99.90
17489;DHT22;8861;52.644;4.734;2023-07-28T10:03:11;22.30;99.90
17489;DHT22;8861;52.644;4.734;2023-07-28T10:05:39;22.30;99.90
17489;DHT22;8861;52.644;4.734;2023-07-28T10:08:07;22.20;99.90
17489;DHT22;8861;52.644;4.734;2023-07-28T10:10:34;22.00;99.90
17489;DHT22;8861;52.644;4.734;2023-07-28T10:13:02;21.80;99.90
17489;DHT22;8861;52.644;4.734;2023-07-28T10:15:30;21.60;99.90
17489;DHT22;8861;52.644;4.734;2023-07-28T10:17:58;21.40;99.90
17489;DHT22;8861;52.644;4.734;2023-07-28T10:20:31;21.30;99.90
17489;DHT22;8861;52.644;4.734;2023-07-28T10:23:07;21.20;99.90
17489;DHT22;8861;52.644;4.734;2023-07-28T10:25:36;21.10;99.90
17489;DHT22;8861;52.644;4.734;2023-07-28T10:28:04;21.00;99.90
17489;DHT22;8861;52.644;4.734;2023-07-28T10:30:36;21.00;99.90
17489;DHT22;8861;52.644;4.734;2023-07-28T10:33:04;21.00;99.90
17489;DHT22;8861;52.644;4.734;2023-07-28T10:35:32;21.20;99.90
17489;DHT22;8861;52.644;4.734;2023-07-28T10:38:30;21.30;99.90
17489;DHT22;8861;52.644;4.734;2023-07-28T10:41:06;21.50;99.90
17489;DHT22;8861;52.644;4.734;2023-07-28T10:43:33;21.60;99.90
17489;DHT22;8861;52.644;4.734;2023-07-28T10:46:01;21.60;99.90
17489;DHT22;8861;52.644;4.734;2023-07-28T10:48:28;21.60;99.90
17489;DHT22;8861;52.644;4.734;2023-07-28T10:50:56;21.50;99.90
17489;DHT22;8861;52.644;4.734;2023-07-28T10:53:23;21.60;99.90
17489;DHT22;8861;52.644;4.734;2023-07-28T10:55:50;21.60;99.90
17489;DHT22;8861;52.644;4.734;2023-07-28T10:58:17;21.50;99.90
17489;DHT22;8861;52.644;4.734;2023-07-28T11:00:45;21.50;99.90
17489;DHT22;8861;52.644;4.734;2023-07-28T11:03:13;21.30;99.90
17489;DHT22;8861;52.644;4.734;2023-07-28T11:05:40;21.30;99.90
17489;DHT22;8861;52.644;4.734;2023-07-28T11:08:09;21.20;99.90
17489;DHT22;8861;52.644;4.734;2023-07-28T11:10:37;21.20;99.90
17489;DHT22;8861;52.644;4.734;2023-07-28T11:13:07;21.10;99.90
17489;DHT22;8861;52.644;4.734;2023-07-28T11:15:34;21.10;99.90
17489;DHT22;8861;52.644;4.734;2023-07-28T11:18:03;21.20;99.90
17489;DHT22;8861;52.644;4.734;2023-07-28T11:20:30;21.20;99.90
17489;DHT22;8861;52.644;4.734;2023-07-28T11:22:58;21.30;99.90
17489;DHT22;8861;52.644;4.734;2023-07-28T11:25:28;21.50;99.90
17489;DHT22;8861;52.644;4.734;2023-07-28T11:27:55;21.80;99.90
17489;DHT22;8861;52.644;4.734;2023-07-28T11:30:25;21.90;99.90
17489;DHT22;8861;52.644;4.734;2023-07-28T11:32:53;22.00;99.90
17489;DHT22;8861;52.644;4.734;2023-07-28T11:35:21;22.00;99.90
17489;DHT22;8861;52.644;4.734;2023-07-28T11:37:52;22.20;99.90
17489;DHT22;8861;52.644;4.734;2023-07-28T11:40:21;22.30;99.90
17489;DHT22;8861;52.644;4.734;2023-07-28T11:42:52;22.50;99.90
17489;DHT22;8861;52.644;4.734;2023-07-28T11:45:20;22.80;99.90
17489;DHT22;8861;52.644;4.734;2023-07-28T11:47:58;23.10;99.90
17489;DHT22;8861;52.644;4.734;2023-07-28T11:50:26;23.30;99.90
17489;DHT22;8861;52.644;4.734;2023-07-28T11:52:54;23.50;99.90
17489;DHT22;8861;52.644;4.734;2023-07-28T11:55:22;23.50;99.90
17489;DHT22;8861;52.644;4.734;2023-07-28T11:57:51;23.30;99.90
17489;DHT22;8861;52.644;4.734;2023-07-28T12:00:18;23.30;99.90
17489;DHT22;8861;52.644;4.734;2023-07-28T12:03:00;23.30;99.90
17489;DHT22;8861;52.644;4.734;2023-07-28T12:05:29;23.20;99.90
17489;DHT22;8861;52.644;4.734;2023-07-28T12:07:56;23.20;99.90
17489;DHT22;8861;52.644;4.734;2023-07-28T12:10:23;23.20;99.90
17489;DHT22;8861;52.644;4.734;2023-07-28T12:12:51;23.00;99.90
17489;DHT22;8861;52.644;4.734;2023-07-28T12:15:23;22.80;99.90
17489;DHT22;8861;52.644;4.734;2023-07-28T12:18:04;22.70;99.90
17489;DHT22;8861;52.644;4.734;2023-07-28T12:20:36;22.50;99.90
17489;DHT22;8861;52.644;4.734;2023-07-28T12:23:04;22.40;99.90
17489;DHT22;8861;52.644;4.734;2023-07-28T12:25:31;22.40;99.90
17489;DHT22;8861;52.644;4.734;2023-07-28T12:28:00;22.20;99.90
17489;DHT22;8861;52.644;4.734;2023-07-28T12:30:27;22.10;99.90
17489;DHT22;8861;52.644;4.734;2023-07-28T12:32:54;22.10;99.90
17489;DHT22;8861;52.644;4.734;2023-07-28T12:35:21;22.20;99.90
17489;DHT22;8861;52.644;4.734;2023-07-28T12:37:50;22.20;99.90
17489;DHT22;8861;52.644;4.734;2023-07-28T12:40:17;22.30;99.90
17489;DHT22;8861;52.644;4.734;2023-07-28T12:42:46;22.30;99.90
17489;DHT22;8861;52.644;4.734;2023-07-28T12:45:15;22.40;99.90
17489;DHT22;8861;52.644;4.734;2023-07-28T12:47:42;22.50;99.90
17489;DHT22;8861;52.644;4.734;2023-07-28T12:50:09;22.50;99.90
17489;DHT22;8861;52.644;4.734;2023-07-28T12:52:37;22.60;99.90
17489;DHT22;8861;52.644;4.734;2023-07-28T12:55:04;22.70;99.90
17489;DHT22;8861;52.644;4.734;2023-07-28T12:57:31;22.70;99.90
17489;DHT22;8861;52.644;4.734;2023-07-28T12:59:58;22.70;99.90
17489;DHT22;8861;52.644;4.734;2023-07-28T13:02:26;22.60;99.90
17489;DHT22;8861;52.644;4.734;2023-07-28T13:04:53;22.60;99.90
17489;DHT22;8861;52.644;4.734;2023-07-28T13:07:20;22.60;99.90
17489;DHT22;8861;52.644;4.734;2023-07-28T13:09:49;22.60;99.90
17489;DHT22;8861;52.644;4.734;2023-07-28T13:12:15;22.70;99.90
17489;DHT22;8861;52.644;4.734;2023-07-28T13:14:42;22.70;99.90
17489;DHT22;8861;52.644;4.734;2023-07-28T13:17:09;22.80;99.90
17489;DHT22;8861;52.644;4.734;2023-07-28T13:19:38;22.80;99.90
17489;DHT22;8861;52.644;4.734;2023-07-28T13:22:06;22.70;99.90
17489;DHT22;8861;52.644;4.734;2023-07-28T13:24:33;22.60;99.90
17489;DHT22;8861;52.644;4.734;2023-07-28T13:27:00;22.80;99.90
17489;DHT22;8861;52.644;4.734;2023-07-28T13:29:27;22.90;99.90
17489;DHT22;8861;52.644;4.734;2023-07-28T13:31:58;22.90;99.90
17489;DHT22;8861;52.644;4.734;2023-07-28T13:34:26;22.90;99.90
17489;DHT22;8861;52.644;4.734;2023-07-28T13:36:55;22.90;99.90
17489;DHT22;8861;52.644;4.734;2023-07-28T13:39:22;22.90;99.90
17489;DHT22;8861;52.644;4.734;2023-07-28T13:41:50;23.00;99.90
17489;DHT22;8861;52.644;4.734;2023-07-28T13:44:17;23.20;99.90
17489;DHT22;8861;52.644;4.734;2023-07-28T13:46:43;23.30;99.90
17489;DHT22;8861;52.644;4.734;2023-07-28T13:49:10;23.30;99.90
17489;DHT22;8861;52.644;4.734;2023-07-28T13:51:37;23.20;99.90
17489;DHT22;8861;52.644;4.734;2023-07-28T13:54:06;23.10;99.90
17489;DHT22;8861;52.644;4.734;2023-07-28T13:56:33;23.20;99.90
17489;DHT22;8861;52.644;4.734;2023-07-28T13:59:00;23.20;99.90
17489;DHT22;8861;52.644;4.734;2023-07-28T14:01:27;23.20;99.90
17489;DHT22;8861;52.644;4.734;2023-07-28T14:03:54;23.50;99.90
17489;DHT22;8861;52.644;4.734;2023-07-28T14:06:20;23.80;99.90
17489;DHT22;8861;52.644;4.734;2023-07-28T14:08:47;24.10;99.90
17489;DHT22;8861;52.644;4.734;2023-07-28T14:11:16;24.40;99.90
17489;DHT22;8861;52.644;4.734;2023-07-28T14:13:43;24.70;99.90
17489;DHT22;8861;52.644;4.734;2023-07-28T14:16:10;25.00;99.90
17489;DHT22;8861;52.644;4.734;2023-07-28T14:18:38;25.20;99.90
17489;DHT22;8861;52.644;4.734;2023-07-28T14:21:06;25.40;99.90
17489;DHT22;8861;52.644;4.734;2023-07-28T14:23:33;25.30;99.90
17489;DHT22;8861;52.644;4.734;2023-07-28T14:26:00;25.10;99.90
17489;DHT22;8861;52.644;4.734;2023-07-28T14:28:28;25.20;99.90
17489;DHT22;8861;52.644;4.734;2023-07-28T14:30:55;25.50;99.90
17489;DHT22;8861;52.644;4.734;2023-07-28T14:33:22;26.60;99.90
17489;DHT22;8861;52.644;4.734;2023-07-28T14:35:49;27.70;99.90
17489;DHT22;8861;52.644;4.734;2023-07-28T14:38:16;28.60;99.90
17489;DHT22;8861;52.644;4.734;2023-07-28T14:40:44;29.30;99.90
17489;DHT22;8861;52.644;4.734;2023-07-28T14:43:14;29.90;99.90
17489;DHT22;8861;52.644;4.734;2023-07-28T14:45:42;30.00;99.90
17489;DHT22;8861;52.644;4.734;2023-07-28T14:48:10;30.10;99.90
17489;DHT22;8861;52.644;4.734;2023-07-28T14:50:37;30.20;99.90
17489;DHT22;8861;52.644;4.734;2023-07-28T14:53:27;29.90;99.90
17489;DHT22;8861;52.644;4.734;2023-07-28T14:55:54;29.20;99.90
17489;DHT22;8861;52.644;4.734;2023-07-28T14:58:21;28.60;99.90
17489;DHT22;8861;52.644;4.734;2023-07-28T15:00:49;27.90;99.90
17489;DHT22;8861;52.644;4.734;2023-07-28T15:03:16;27.50;99.90
17489;DHT22;8861;52.644;4.734;2023-07-28T15:05:43;27.10;99.90
17489;DHT22;8861;52.644;4.734;2023-07-28T15:08:10;26.80;99.90
17489;DHT22;8861;52.644;4.734;2023-07-28T15:10:37;27.00;99.90
17489;DHT22;8861;52.644;4.734;2023-07-28T15:13:04;26.80;99.90
17489;DHT22;8861;52.644;4.734;2023-07-28T15:15:31;26.60;99.90
17489;DHT22;8861;52.644;4.734;2023-07-28T15:18:00;26.20;99.90
17489;DHT22;8861;52.644;4.734;2023-07-28T15:20:27;25.70;99.90
17489;DHT22;8861;52.644;4.734;2023-07-28T15:22:54;25.40;99.90
17489;DHT22;8861;52.644;4.734;2023-07-28T15:25:21;25.10;99.90
17489;DHT22;8861;52.644;4.734;2023-07-28T15:27:48;25.00;99.90
17489;DHT22;8861;52.644;4.734;2023-07-28T15:30:15;24.80;99.90
17489;DHT22;8861;52.644;4.734;2023-07-28T15:32:42;24.90;99.90
17489;DHT22;8861;52.644;4.734;2023-07-28T15:35:10;25.00;99.90
17489;DHT22;8861;52.644;4.734;2023-07-28T15:37:37;24.90;99.90
17489;DHT22;8861;52.644;4.734;2023-07-28T15:40:05;25.00;99.90
17489;DHT22;8861;52.644;4.734;2023-07-28T15:42:32;25.10;99.90
17489;DHT22;8861;52.644;4.734;2023-07-28T15:44:59;25.10;99.90
17489;DHT22;8861;52.644;4.734;2023-07-28T15:47:26;25.20;99.90
17489;DHT22;8861;52.644;4.734;2023-07-28T15:49:54;25.20;99.90